Terminal Aerodrome Forecast
Issued by NWS Shreveport, LA

Home | Current Version | Previous Version | Text Only | Print | Product List | Glossary On
Versions: 1 2 3 4 5 6 7 8 9 10 11 12 13 14 15 16 17 18 19 20 21
373
FTUS44 KSHV 301311 AAA
TAFLFK
TAF AMD
KLFK 301311Z 3013/0112 VRB04KT P6SM VCTS OVC035CB
      TEMPO 3013/3016 5SM -RA OVC015
     FM301600 18008KT P6SM BKN025
     FM301800 23007KT P6SM OVC050
     FM302100 VRB04KT P6SM BKN250
     FM010900 03004KT 4SM BR OVC250=

USA.gov is the U.S. government's official web portal to all federal, state and local government web resources and services.